Time;durP1;ratioP1;P1;durP2;ratioP2;P2;SDS_P1;SDS_P2;PMS_P1;PMS_P2;Temp;Humidity;BMP_temperature;BMP_pressure;BME280_temperature;BME280_humidity;BME280_pressure;Samples;Min_cycle;Max_cycle;Signal;HPM_P1;HPM_P2
2021/12/15 00:00:12;;;;;;;31.77;9.05;;;9.90;99.90;;;;;;4149483;28;20053;-82
2021/12/15 00:02:18;;;;;;;30.77;9.38;;;9.90;99.90;;;;;;4163287;28;20571;-83
2021/12/15 00:04:19;;;;;;;34.00;9.82;;;10.20;99.90;;;;;;4168743;28;20477;-83
2021/12/15 00:06:20;;;;;;;33.30;10.23;;;9.90;99.90;;;;;;4180113;28;20048;-83
2021/12/15 00:08:21;;;;;;;29.17;9.50;;;9.90;99.90;;;;;;4163155;28;20049;-83
2021/12/15 00:10:22;;;;;;;27.65;9.40;;;10.00;99.90;;;;;;4180854;28;20052;-83
2021/12/15 00:12:23;;;;;;;32.65;9.50;;;10.00;99.90;;;;;;4180821;28;20132;-83
2021/12/15 00:14:24;;;;;;;32.53;9.07;;;10.10;99.90;;;;;;4163106;28;20045;-83
2021/12/15 00:16:25;;;;;;;29.50;9.27;;;9.90;99.90;;;;;;4180710;28;20036;-83
2021/12/15 00:18:26;;;;;;;29.70;9.00;;;10.00;99.90;;;;;;4147162;28;20049;-83
2021/12/15 00:20:28;;;;;;;25.20;8.80;;;9.90;99.90;;;;;;4181211;28;20401;-82
2021/12/15 00:22:29;;;;;;;24.20;8.70;;;10.00;99.90;;;;;;4159128;28;20068;-83
2021/12/15 00:24:30;;;;;;;30.58;9.82;;;10.00;99.90;;;;;;4152373;28;20085;-83
2021/12/15 00:26:31;;;;;;;32.22;9.27;;;9.90;99.90;;;;;;4147976;28;20120;-83
2021/12/15 00:28:32;;;;;;;27.23;9.32;;;10.00;99.90;;;;;;4152210;28;20053;-83
2021/12/15 00:30:33;;;;;;;34.42;9.63;;;9.90;99.90;;;;;;4163384;28;20053;-83
2021/12/15 00:32:34;;;;;;;33.17;9.75;;;10.00;99.90;;;;;;4163279;28;20152;-83
2021/12/15 00:34:38;;;;;;;27.45;8.60;;;10.00;99.90;;;;;;4162533;28;20088;-83
2021/12/15 00:36:50;;;;;;;30.10;10.40;;;9.90;99.90;;;;;;4253902;27;1263012;-81
2021/12/15 00:38:51;;;;;;;31.85;8.85;;;9.90;99.90;;;;;;4262006;27;20042;-82
2021/12/15 00:40:52;;;;;;;28.80;9.10;;;9.90;99.90;;;;;;4244055;28;20413;-82
2021/12/15 00:42:54;;;;;;;26.38;9.40;;;10.50;99.90;;;;;;4256068;27;20035;-82
2021/12/15 00:44:55;;;;;;;30.45;9.50;;;10.10;99.90;;;;;;4243750;28;20059;-82
2021/12/15 00:46:57;;;;;;;36.42;9.45;;;10.00;99.90;;;;;;4253726;27;20551;-82
2021/12/15 00:48:58;;;;;;;30.30;8.77;;;10.00;99.90;;;;;;4244861;28;20522;-83
2021/12/15 00:50:59;;;;;;;27.35;9.40;;;10.00;99.90;;;;;;4244976;28;20052;-82
2021/12/15 00:53:01;;;;;;;40.28;11.50;;;10.10;99.90;;;;;;4237112;28;20068;-83
2021/12/15 00:55:05;;;;;;;30.50;8.82;;;10.00;99.90;;;;;;4261230;27;20047;-82
2021/12/15 00:57:06;;;;;;;28.40;8.80;;;10.00;99.90;;;;;;4260894;27;20055;-82
2021/12/15 00:59:09;;;;;;;28.65;9.57;;;10.00;99.90;;;;;;4244269;28;20051;-82
2021/12/15 01:01:10;;;;;;;25.90;8.90;;;10.00;99.90;;;;;;4261673;27;20055;-82
2021/12/15 01:03:11;;;;;;;28.08;9.13;;;10.20;99.90;;;;;;4261340;27;20379;-83
2021/12/15 01:05:14;;;;;;;31.83;9.57;;;10.00;99.90;;;;;;4260606;27;20434;-83
2021/12/15 01:07:15;;;;;;;28.20;8.73;;;10.30;99.90;;;;;;4260911;27;20047;-82
2021/12/15 01:09:23;;;;;;;21.65;8.38;;;10.00;99.90;;;;;;4243614;28;20601;-82
2021/12/15 01:12:26;;;;;;;28.08;9.23;;;10.00;99.90;;;;;;4261089;27;20137;-82
2021/12/15 01:20:58;;;;;;;;;;;10.50;99.90;;;;;;4260785;27;20062;-82
2021/12/15 01:23:04;;;;;;;25.25;7.55;;;10.00;99.90;;;;;;4260801;27;19923;-82
2021/12/15 01:25:13;;;;;;;32.72;8.68;;;10.10;99.90;;;;;;4260910;27;20050;-83
2021/12/15 01:27:14;;;;;;;27.80;9.40;;;10.00;99.90;;;;;;4243330;27;20044;-83
2021/12/15 01:29:14;;;;;;;28.98;8.60;;;10.00;99.90;;;;;;4260749;27;20055;-83
2021/12/15 01:31:15;;;;;;;29.20;8.80;;;10.40;99.90;;;;;;4261246;27;20606;-83
2021/12/15 01:33:16;;;;;;;26.63;8.27;;;10.00;99.90;;;;;;4260274;27;20047;-83
2021/12/15 01:35:18;;;;;;;27.52;8.10;;;10.40;99.90;;;;;;4243649;28;21014;-84
2021/12/15 01:37:22;;;;;;;26.48;9.70;;;10.50;99.90;;;;;;4279135;27;20042;-83
2021/12/15 01:39:22;;;;;;;25.48;8.48;;;10.00;99.90;;;;;;4243522;28;20051;-83
2021/12/15 01:41:24;;;;;;;25.92;8.48;;;10.00;99.90;;;;;;4243492;28;20039;-83
2021/12/15 01:46:54;;;;;;;28.60;8.93;;;10.00;99.90;;;;;;4257021;27;20096;-83
2021/12/15 01:48:16;;;;;;;30.02;10.02;;;10.10;99.90;;;;;;4249988;27;20061;-83
2021/12/15 01:50:17;;;;;;;31.55;8.85;;;10.10;99.90;;;;;;4232112;28;20123;-83
2021/12/15 01:52:34;;;;;;;34.42;9.70;;;10.10;99.90;;;;;;4236074;27;20051;-83
2021/12/15 01:54:38;;;;;;;27.40;9.15;;;10.00;99.90;;;;;;4249013;27;20472;-83
2021/12/15 01:56:40;;;;;;;27.23;9.07;;;10.00;99.90;;;;;;4248473;27;20092;-83
2021/12/15 01:58:41;;;;;;;30.67;9.80;;;10.00;99.90;;;;;;4214277;28;20423;-83
2021/12/15 02:00:48;;;;;;;28.85;9.32;;;10.10;99.90;;;;;;4231620;28;20461;-84
2021/12/15 02:02:50;;;;;;;30.27;9.18;;;10.30;99.90;;;;;;4232232;28;20099;-83
2021/12/15 02:04:51;;;;;;;37.60;10.57;;;10.10;99.90;;;;;;4250130;27;20446;-83
2021/12/15 02:06:52;;;;;;;22.15;9.55;;;10.10;99.90;;;;;;4231591;28;20051;-83
2021/12/15 02:08:53;;;;;;;32.97;10.32;;;10.10;99.90;;;;;;4250019;27;20038;-82
2021/12/15 02:10:54;;;;;;;33.72;9.80;;;10.10;99.90;;;;;;4249576;27;20074;-82
2021/12/15 02:12:58;;;;;;;32.42;10.15;;;10.10;99.90;;;;;;4248644;27;20077;-83
2021/12/15 02:15:00;;;;;;;31.65;10.27;;;10.10;99.90;;;;;;4249958;27;20051;-82
2021/12/15 02:17:01;;;;;;;28.42;10.07;;;10.10;99.90;;;;;;4231390;28;20499;-82
2021/12/15 02:19:02;;;;;;;29.42;10.45;;;10.10;99.90;;;;;;4231535;28;20079;-83
2021/12/15 02:21:10;;;;;;;27.00;9.30;;;10.10;99.90;;;;;;4249488;27;20411;-83
2021/12/15 02:23:14;;;;;;;26.00;10.45;;;10.50;99.90;;;;;;4249988;27;20528;-83
2021/12/15 02:25:16;;;;;;;33.92;10.07;;;10.10;99.90;;;;;;4248935;27;20150;-83
2021/12/15 02:27:17;;;;;;;34.60;9.45;;;10.20;99.90;;;;;;4231179;28;20511;-83
2021/12/15 02:29:20;;;;;;;35.97;10.80;;;10.20;99.90;;;;;;4243535;27;20047;-83
2021/12/15 02:31:54;;;;;;;31.00;10.07;;;10.10;99.90;;;;;;4249052;27;20051;-82
2021/12/15 02:34:06;;;;;;;27.50;10.50;;;10.40;99.90;;;;;;4249570;27;20043;-82
2021/12/15 02:38:34;;;;;;;23.15;9.65;;;10.10;99.90;;;;;;4249499;27;20043;-82
2021/12/15 02:40:34;;;;;;;26.27;10.00;;;10.20;99.90;;;;;;4249395;27;20461;-82
2021/12/15 02:42:38;;;;;;;35.05;10.23;;;10.10;99.90;;;;;;4249613;27;20035;-82
2021/12/15 02:44:43;;;;;;;28.98;9.10;;;10.10;99.90;;;;;;4249386;27;20082;-81
2021/12/15 02:46:45;;;;;;;27.65;9.60;;;10.40;99.90;;;;;;4248941;27;20505;-82
2021/12/15 02:48:46;;;;;;;30.63;10.27;;;10.50;99.90;;;;;;4231102;28;20061;-81
2021/12/15 02:50:47;;;;;;;34.55;9.73;;;10.10;99.90;;;;;;4249472;27;20035;-82
2021/12/15 02:52:49;;;;;;;24.85;9.82;;;10.10;99.90;;;;;;4249242;27;20129;-82
2021/12/15 02:54:50;;;;;;;30.65;11.23;;;10.10;99.90;;;;;;4249186;27;20129;-82
2021/12/15 02:56:53;;;;;;;28.80;10.68;;;10.50;99.90;;;;;;4249216;27;20511;-82
2021/12/15 02:59:02;;;;;;;33.17;10.70;;;10.10;99.90;;;;;;4247955;27;20514;-83
2021/12/15 03:01:16;;;;;;;33.58;11.70;;;10.10;99.90;;;;;;4214361;28;20052;-83
2021/12/15 03:05:44;;;;;;;35.03;11.25;;;10.10;99.90;;;;;;4249519;27;20057;-83
2021/12/15 03:08:00;;;;;;;29.90;10.48;;;10.10;99.90;;;;;;4214645;28;20101;-83
2021/12/15 03:17:00;;;;;;;31.60;11.05;;;10.10;99.90;;;;;;4246081;28;20451;-82
2021/12/15 03:19:01;;;;;;;31.33;9.88;;;10.10;99.90;;;;;;4233753;28;20092;-82
2021/12/15 03:21:14;;;;;;;27.55;9.50;;;10.10;99.90;;;;;;4267533;27;20057;-82
2021/12/15 03:23:43;;;;;;;39.53;12.18;;;10.10;99.90;;;;;;4267090;27;20047;-83
2021/12/15 03:25:44;;;;;;;;;;;10.20;99.90;;;;;;4258216;27;20038;-83
2021/12/15 03:33:28;;;;;;;26.73;9.77;;;10.10;99.90;;;;;;4248178;27;20047;-83
2021/12/15 03:39:00;;;;;;;40.45;11.50;;;10.10;99.90;;;;;;4248035;27;20054;-83
2021/12/15 03:41:04;;;;;;;29.73;10.43;;;10.10;99.90;;;;;;4248178;27;20071;-82
2021/12/15 03:43:11;;;;;;;30.60;10.25;;;10.10;99.90;;;;;;4220438;28;20050;-82
2021/12/15 03:45:16;;;;;;;31.95;10.05;;;10.10;99.90;;;;;;4249749;27;20243;-82
2021/12/15 03:47:23;;;;;;;34.10;11.15;;;10.10;99.90;;;;;;4215655;28;20143;-82
2021/12/15 03:49:24;;;;;;;35.92;10.43;;;10.20;99.90;;;;;;4250917;27;20114;-81
2021/12/15 03:51:25;;;;;;;30.77;10.48;;;10.10;99.90;;;;;;4234916;28;20047;-82
2021/12/15 03:53:27;;;;;;;32.58;11.02;;;10.10;99.90;;;;;;4250555;27;20077;-81
2021/12/15 03:55:30;;;;;;;36.00;11.77;;;10.10;99.90;;;;;;4213851;28;20055;-82
2021/12/15 03:57:31;;;;;;;31.83;11.18;;;10.10;99.90;;;;;;4229817;28;20126;-81
2021/12/15 03:59:34;;;;;;;28.60;10.57;;;10.10;99.90;;;;;;4230033;28;20485;-82
2021/12/15 04:01:35;;;;;;;32.80;10.80;;;10.30;99.90;;;;;;4249413;27;20088;-82
2021/12/15 04:03:38;;;;;;;28.52;10.02;;;10.30;99.90;;;;;;4229969;28;20055;-82
2021/12/15 04:05:40;;;;;;;34.00;10.90;;;10.20;99.90;;;;;;4245768;27;20414;-82
2021/12/15 04:07:42;;;;;;;32.70;11.50;;;10.10;99.90;;;;;;4265167;27;20485;-82
2021/12/15 04:09:43;;;;;;;29.83;11.45;;;10.30;99.90;;;;;;4231034;28;20070;-83
2021/12/15 04:11:44;;;;;;;30.25;9.65;;;10.10;99.90;;;;;;4267293;27;20047;-82
2021/12/15 04:13:47;;;;;;;28.25;11.23;;;10.20;99.90;;;;;;4248602;27;20059;-83
2021/12/15 04:16:05;;;;;;;30.27;10.65;;;10.40;99.90;;;;;;4266845;27;20049;-83
2021/12/15 04:18:05;;;;;;;35.47;11.48;;;10.10;99.90;;;;;;4248543;27;20590;-82
2021/12/15 04:20:11;;;;;;;23.80;9.40;;;10.20;99.90;;;;;;4265681;27;20046;-82
2021/12/15 04:22:12;;;;;;;32.20;10.68;;;10.10;99.90;;;;;;4230116;28;20047;-83
2021/12/15 04:24:14;;;;;;;27.77;10.85;;;10.10;99.90;;;;;;4265218;27;20042;-83
2021/12/15 04:26:16;;;;;;;33.83;11.75;;;10.10;99.90;;;;;;4223797;28;20048;-83
2021/12/15 04:28:21;;;;;;;31.08;10.05;;;10.10;99.90;;;;;;4229905;28;20103;-83
2021/12/15 04:30:23;;;;;;;35.13;12.80;;;10.20;99.90;;;;;;4229648;28;20062;-83
2021/12/15 04:32:44;;;;;;;25.80;11.20;;;10.10;99.90;;;;;;4247247;27;20031;-83
2021/12/15 04:34:45;;;;;;;23.67;8.82;;;10.40;99.90;;;;;;4247808;27;20406;-83
2021/12/15 04:36:49;;;;;;;33.67;10.15;;;10.10;99.90;;;;;;4212615;28;20060;-83
2021/12/15 04:38:51;;;;;;;29.80;10.52;;;10.50;99.90;;;;;;4229303;28;20077;-83
2021/12/15 04:40:53;;;;;;;26.80;10.00;;;10.10;99.90;;;;;;4229613;28;20467;-83
2021/12/15 04:42:55;;;;;;;33.67;9.55;;;10.10;99.90;;;;;;4218017;28;20553;-83
2021/12/15 04:44:56;;;;;;;25.63;9.73;;;10.10;99.90;;;;;;4229617;28;20047;-83
2021/12/15 04:47:04;;;;;;;25.52;9.93;;;10.10;99.90;;;;;;4228613;28;20079;-83
2021/12/15 04:49:09;;;;;;;27.70;9.45;;;10.20;99.90;;;;;;4212732;28;20048;-83
2021/12/15 04:51:10;;;;;;;33.90;10.10;;;10.10;99.90;;;;;;4247804;28;20050;-83
2021/12/15 04:53:11;;;;;;;30.85;9.30;;;10.10;99.90;;;;;;4247413;27;20043;-83
2021/12/15 04:55:12;;;;;;;26.23;9.70;;;10.10;99.90;;;;;;4247452;28;20042;-83
2021/12/15 04:57:14;;;;;;;25.77;9.48;;;10.10;99.90;;;;;;4247434;28;20071;-83
2021/12/15 04:59:16;;;;;;;27.50;10.18;;;10.10;99.90;;;;;;4212340;28;20052;-83
2021/12/15 05:01:17;;;;;;;29.40;10.15;;;10.30;99.90;;;;;;4229380;28;20043;-83
2021/12/15 05:03:19;;;;;;;30.30;9.43;;;10.20;99.90;;;;;;4247414;28;20137;-83
2021/12/15 05:05:23;;;;;;;31.23;10.40;;;10.10;99.90;;;;;;4260206;27;20095;-83
2021/12/15 05:07:24;;;;;;;25.98;8.90;;;10.20;99.90;;;;;;4246347;28;20652;-83
2021/12/15 05:09:26;;;;;;;26.52;9.27;;;10.10;99.90;;;;;;4246236;28;20161;-83
2021/12/15 05:11:27;;;;;;;24.45;9.25;;;10.10;99.90;;;;;;4231735;28;20055;-83
2021/12/15 05:13:29;;;;;;;33.95;9.65;;;10.40;99.90;;;;;;4247644;28;20513;-83
2021/12/15 05:15:31;;;;;;;27.50;9.82;;;10.10;99.90;;;;;;4247746;28;20054;-82
2021/12/15 05:17:31;;;;;;;31.35;9.80;;;10.10;99.90;;;;;;4247802;27;20114;-82
2021/12/15 05:19:32;;;;;;;29.73;9.10;;;10.10;99.90;;;;;;4247456;28;20036;-82
2021/12/15 05:21:33;;;;;;;29.98;10.13;;;10.10;99.90;;;;;;4229329;28;20044;-82
2021/12/15 05:23:34;;;;;;;23.20;8.77;;;10.10;99.90;;;;;;4250531;27;20046;-83
2021/12/15 05:25:35;;;;;;;27.20;9.38;;;10.10;99.90;;;;;;4231991;28;20047;-83
2021/12/15 05:27:38;;;;;;;29.70;9.57;;;10.10;99.90;;;;;;4250286;27;20035;-83
2021/12/15 05:29:41;;;;;;;25.98;9.65;;;10.30;99.90;;;;;;4254204;27;20630;-83
2021/12/15 05:31:42;;;;;;;28.77;8.98;;;10.10;99.90;;;;;;4232606;27;20115;-83
2021/12/15 05:33:42;;;;;;;27.02;10.57;;;10.10;99.90;;;;;;4231848;28;20526;-83
2021/12/15 05:35:43;;;;;;;29.20;10.55;;;10.60;99.90;;;;;;4231427;28;20052;-83
2021/12/15 05:37:44;;;;;;;36.65;11.00;;;10.20;99.90;;;;;;4214011;28;20074;-82
2021/12/15 05:39:46;;;;;;;29.70;9.38;;;10.20;99.90;;;;;;4231957;28;20054;-83
2021/12/15 05:41:48;;;;;;;35.53;11.07;;;10.10;99.90;;;;;;4247819;27;20583;-83
2021/12/15 05:43:49;;;;;;;27.95;10.35;;;10.10;99.90;;;;;;4234895;27;20047;-83
2021/12/15 05:45:51;;;;;;;27.10;10.02;;;10.10;99.90;;;;;;4232810;28;20093;-83
2021/12/15 05:47:55;;;;;;;35.03;10.55;;;10.00;99.90;;;;;;4231403;28;20122;-82
2021/12/15 05:49:55;;;;;;;31.52;9.80;;;10.20;99.90;;;;;;4232850;28;20510;-82
2021/12/15 05:51:56;;;;;;;27.42;9.82;;;10.10;99.90;;;;;;4232506;27;20047;-83
2021/12/15 05:53:57;;;;;;;29.25;10.48;;;10.40;99.90;;;;;;4232541;28;20043;-82
2021/12/15 05:55:58;;;;;;;33.00;9.75;;;10.10;99.90;;;;;;4231021;28;20043;-82
2021/12/15 05:57:58;;;;;;;33.83;10.93;;;10.10;99.90;;;;;;4231349;28;20048;-83
2021/12/15 06:00:00;;;;;;;35.33;10.25;;;10.10;99.90;;;;;;4214738;28;20036;-83
2021/12/15 06:02:01;;;;;;;26.98;9.50;;;10.10;99.90;;;;;;4232623;28;20057;-83
2021/12/15 06:04:06;;;;;;;33.63;10.15;;;10.10;99.90;;;;;;4232785;28;20551;-83
2021/12/15 06:06:06;;;;;;;25.60;9.70;;;10.00;99.90;;;;;;4231882;27;20107;-83
2021/12/15 06:08:07;;;;;;;25.20;10.57;;;10.10;99.90;;;;;;4232592;28;20503;-82
2021/12/15 06:10:12;;;;;;;31.77;10.73;;;10.10;99.90;;;;;;4231946;28;20522;-82
2021/12/15 06:12:13;;;;;;;35.97;10.40;;;10.10;99.90;;;;;;4232739;27;20084;-83
2021/12/15 06:14:22;;;;;;;36.17;10.18;;;10.10;99.90;;;;;;4231791;28;20036;-83
2021/12/15 06:16:23;;;;;;;31.60;9.95;;;10.10;99.90;;;;;;4231524;28;20077;-85
2021/12/15 06:18:25;;;;;;;32.60;9.88;;;10.10;99.90;;;;;;4231279;28;20059;-82
2021/12/15 06:20:27;;;;;;;31.83;10.95;;;10.10;99.90;;;;;;4231262;28;20544;-82
2021/12/15 06:22:29;;;;;;;29.85;10.35;;;10.20;99.90;;;;;;4233253;28;20039;-83
2021/12/15 06:24:30;;;;;;;27.90;10.32;;;10.10;99.90;;;;;;4232759;28;20112;-83
2021/12/15 06:26:30;;;;;;;27.30;10.80;;;10.20;99.90;;;;;;4237646;27;20126;-82
2021/12/15 06:28:33;;;;;;;30.05;10.93;;;10.10;99.90;;;;;;4231170;28;20044;-83
2021/12/15 06:30:37;;;;;;;39.95;10.93;;;10.10;99.90;;;;;;4232068;28;20047;-83
2021/12/15 06:32:37;;;;;;;29.55;9.18;;;10.10;99.90;;;;;;4231563;28;20051;-83
2021/12/15 06:34:38;;;;;;;33.67;11.13;;;10.10;99.90;;;;;;4238016;27;20101;-83
2021/12/15 06:36:39;;;;;;;35.78;11.13;;;10.10;99.90;;;;;;4231227;28;20166;-82
2021/12/15 06:38:43;;;;;;;31.70;10.50;;;10.10;99.90;;;;;;4249575;27;20043;-82
2021/12/15 06:40:45;;;;;;;33.80;10.20;;;10.10;99.90;;;;;;4248180;27;20043;-83
2021/12/15 06:42:46;;;;;;;37.67;11.45;;;10.10;99.90;;;;;;4244225;27;20063;-83
2021/12/15 06:44:47;;;;;;;32.88;10.43;;;10.20;99.90;;;;;;4231126;28;20046;-83
2021/12/15 06:57:13;;;;;;;30.95;10.27;;;10.10;99.90;;;;;;4248083;27;20096;-82
2021/12/15 06:58:27;;;;;;;39.75;10.82;;;10.30;99.90;;;;;;4232472;28;20040;-82
2021/12/15 07:00:35;;;;;;;29.27;10.32;;;10.40;99.90;;;;;;4232265;28;20126;-83
2021/12/15 07:02:36;;;;;;;37.65;10.80;;;10.30;99.90;;;;;;4232940;28;20547;-82
2021/12/15 07:04:37;;;;;;;28.98;9.52;;;10.10;99.90;;;;;;4213764;28;20044;-82
2021/12/15 07:06:38;;;;;;;22.58;9.65;;;10.10;99.90;;;;;;4232056;28;20043;-83
2021/12/15 07:08:39;;;;;;;25.38;9.65;;;10.00;99.90;;;;;;4232241;28;20479;-82
2021/12/15 07:10:47;;;;;;;32.78;9.30;;;10.20;99.90;;;;;;4231878;28;20046;-82
2021/12/15 07:12:49;;;;;;;24.40;10.38;;;10.20;99.90;;;;;;4230694;28;20050;-82
2021/12/15 07:14:51;;;;;;;30.30;10.93;;;10.20;99.90;;;;;;4231906;28;20047;-84
2021/12/15 07:16:55;;;;;;;25.73;9.38;;;10.10;99.90;;;;;;4240556;27;20039;-84
2021/12/15 07:19:16;;;;;;;29.33;9.07;;;10.20;99.90;;;;;;4214452;28;20076;-84
2021/12/15 07:21:22;;;;;;;23.30;8.65;;;10.20;99.90;;;;;;4232812;28;20054;-84
2021/12/15 07:23:23;;;;;;;26.60;10.13;;;10.10;99.90;;;;;;4231830;28;20082;-83
2021/12/15 07:25:24;;;;;;;24.73;8.48;;;10.30;99.90;;;;;;4231522;28;20504;-83
2021/12/15 07:27:28;;;;;;;33.20;10.27;;;10.30;99.90;;;;;;4231694;28;20044;-83
2021/12/15 07:29:30;;;;;;;25.20;9.43;;;10.20;99.90;;;;;;4235375;27;20035;-83
2021/12/15 07:31:30;;;;;;;24.77;8.32;;;10.20;99.90;;;;;;4245703;27;20094;-82
2021/12/15 07:33:32;;;;;;;30.70;10.23;;;10.20;99.90;;;;;;4249660;27;20486;-82
2021/12/15 07:35:37;;;;;;;29.35;9.40;;;10.20;99.90;;;;;;4238110;27;20071;-82
2021/12/15 07:37:38;;;;;;;26.95;8.75;;;10.20;99.90;;;;;;4249583;27;20047;-83
2021/12/15 07:39:44;;;;;;;27.67;8.60;;;10.20;99.90;;;;;;4230880;27;20047;-82
2021/12/15 07:41:53;;;;;;;25.30;9.10;;;10.20;99.90;;;;;;4237213;27;20044;-82
2021/12/15 07:43:58;;;;;;;22.40;8.55;;;10.30;99.90;;;;;;4249377;27;20546;-82
2021/12/15 07:46:03;;;;;;;32.58;9.35;;;10.20;99.90;;;;;;4248900;27;20479;-83
2021/12/15 07:48:05;;;;;;;27.98;8.65;;;10.50;99.90;;;;;;4246811;27;20530;-83
2021/12/15 07:50:07;;;;;;;22.00;8.55;;;10.20;99.90;;;;;;4237054;28;20043;-83
2021/12/15 07:52:09;;;;;;;19.23;7.85;;;10.20;99.90;;;;;;4244398;27;20047;-83
2021/12/15 07:54:11;;;;;;;23.25;8.38;;;10.20;99.90;;;;;;4220545;28;20040;-83
2021/12/15 07:56:13;;;;;;;22.42;8.45;;;10.30;99.90;;;;;;4260483;27;20482;-84
2021/12/15 07:58:15;;;;;;;27.13;8.68;;;10.90;99.90;;;;;;4253280;27;20105;-83
2021/12/15 08:00:20;;;;;;;20.42;8.48;;;10.20;99.90;;;;;;4213738;28;20524;-85
2021/12/15 08:02:21;;;;;;;22.17;7.82;;;10.20;99.90;;;;;;4238900;27;20444;-84
2021/12/15 08:04:21;;;;;;;19.02;7.72;;;10.20;99.90;;;;;;4261621;27;20043;-84
2021/12/15 08:06:24;;;;;;;24.67;9.00;;;10.20;99.90;;;;;;4230769;28;20075;-84
2021/12/15 08:08:26;;;;;;;18.15;8.10;;;10.20;99.90;;;;;;4231452;28;20130;-84
2021/12/15 08:10:27;;;;;;;23.65;8.02;;;10.20;99.90;;;;;;4248568;27;20034;-84
2021/12/15 08:12:28;;;;;;;27.27;8.10;;;10.20;99.90;;;;;;4249108;27;20043;-83
2021/12/15 08:14:29;;;;;;;20.85;7.68;;;10.40;99.90;;;;;;4248140;27;20039;-83
2021/12/15 08:16:31;;;;;;;15.80;7.50;;;10.20;99.90;;;;;;4248597;27;20091;-84
2021/12/15 08:18:32;;;;;;;18.33;7.40;;;10.20;99.90;;;;;;4248473;27;20552;-84
2021/12/15 08:20:34;;;;;;;16.95;6.32;;;10.20;99.90;;;;;;4247901;27;20039;-84
2021/12/15 08:22:38;;;;;;;16.17;6.63;;;10.20;99.90;;;;;;4229702;28;20047;-84
2021/12/15 08:24:39;;;;;;;23.05;7.07;;;10.20;99.90;;;;;;4248276;27;20035;-84
2021/12/15 08:26:40;;;;;;;29.67;6.88;;;10.20;99.90;;;;;;4229201;28;20035;-84
2021/12/15 08:28:41;;;;;;;22.48;8.15;;;10.20;99.90;;;;;;4236221;27;20498;-84
2021/12/15 08:30:47;;;;;;;20.40;6.43;;;10.20;99.90;;;;;;4264738;27;20039;-84
2021/12/15 08:32:51;;;;;;;18.35;5.88;;;10.20;99.90;;;;;;4235903;27;20104;-84
2021/12/15 08:34:51;;;;;;;23.02;6.05;;;10.20;99.90;;;;;;4229567;28;20055;-83
2021/12/15 08:36:54;;;;;;;15.32;5.13;;;10.20;99.90;;;;;;4229296;28;20067;-83
2021/12/15 08:38:55;;;;;;;16.73;5.80;;;10.20;99.90;;;;;;4229209;28;20424;-84
2021/12/15 08:40:56;;;;;;;14.88;5.70;;;10.20;99.90;;;;;;4247653;27;20035;-83
2021/12/15 08:42:58;;;;;;;14.18;5.78;;;10.20;99.90;;;;;;4247852;28;20088;-84
2021/12/15 08:44:59;;;;;;;16.98;6.10;;;10.20;99.90;;;;;;4223096;28;20093;-85
2021/12/15 08:47:03;;;;;;;16.60;5.32;;;10.20;99.90;;;;;;4212801;28;20044;-84
2021/12/15 08:49:03;;;;;;;15.45;5.53;;;10.20;99.90;;;;;;4231666;28;20384;-84
2021/12/15 08:51:08;;;;;;;21.13;5.88;;;10.00;99.90;;;;;;4248642;28;20063;-84
2021/12/15 08:53:11;;;;;;;16.00;5.95;;;10.20;99.90;;;;;;4249066;28;20070;-83
2021/12/15 08:55:12;;;;;;;16.63;5.78;;;10.20;99.90;;;;;;4248851;28;20039;-83
2021/12/15 08:57:13;;;;;;;11.65;5.03;;;10.20;99.90;;;;;;4249106;27;20043;-83
2021/12/15 08:59:14;;;;;;;18.77;6.18;;;10.20;99.90;;;;;;4228719;28;20112;-83
2021/12/15 09:01:15;;;;;;;15.70;5.43;;;10.20;99.90;;;;;;4269068;27;20501;-84
2021/12/15 09:03:18;;;;;;;20.25;6.30;;;10.20;99.90;;;;;;4236572;28;20086;-84
2021/12/15 09:05:21;;;;;;;19.52;5.78;;;10.60;99.90;;;;;;4271968;27;20041;-82
2021/12/15 09:07:22;;;;;;;20.17;6.25;;;10.40;99.90;;;;;;4268921;27;20077;-82
2021/12/15 09:09:25;;;;;;;21.10;6.30;;;10.20;99.90;;;;;;4236453;28;20047;-82
2021/12/15 09:11:33;;;;;;;24.20;6.43;;;10.20;99.90;;;;;;4253169;27;20040;-82
2021/12/15 09:13:34;;;;;;;19.45;5.70;;;10.40;99.90;;;;;;4265037;27;20062;-82
2021/12/15 09:15:36;;;;;;;15.18;5.35;;;10.30;99.90;;;;;;4236079;28;20468;-84
2021/12/15 09:17:37;;;;;;;18.33;5.95;;;10.60;99.90;;;;;;4221738;28;20080;-85
2021/12/15 09:19:40;;;;;;;13.27;5.38;;;10.50;99.90;;;;;;4241955;27;20565;-86
2021/12/15 09:21:42;;;;;;;15.50;6.25;;;10.40;99.90;;;;;;4256786;27;20428;-83
2021/12/15 09:23:43;;;;;;;15.60;5.68;;;10.60;99.90;;;;;;4250658;27;20043;-81
2021/12/15 09:25:46;;;;;;;15.32;6.00;;;10.50;99.90;;;;;;4252682;27;20506;-82
2021/12/15 09:27:47;;;;;;;19.92;5.63;;;10.20;99.90;;;;;;4262098;27;20062;-81
2021/12/15 09:29:48;;;;;;;17.00;5.57;;;10.80;99.90;;;;;;4267170;27;20122;-83
2021/12/15 09:31:49;;;;;;;15.98;5.85;;;10.90;99.90;;;;;;4268766;27;20071;-83
2021/12/15 09:33:52;;;;;;;13.00;4.50;;;11.30;99.90;;;;;;4268587;27;20031;-83
2021/12/15 09:35:53;;;;;;;21.55;5.38;;;11.90;99.90;;;;;;4225515;28;20110;-83
2021/12/15 09:37:54;;;;;;;16.58;5.78;;;12.10;99.90;;;;;;4216388;28;20044;-83
2021/12/15 09:39:57;;;;;;;13.68;4.15;;;12.20;99.90;;;;;;4215110;28;20217;-84
2021/12/15 09:42:00;;;;;;;12.93;4.45;;;12.60;99.90;;;;;;4217030;28;20488;-82
2021/12/15 09:44:07;;;;;;;12.30;4.68;;;12.90;99.90;;;;;;4216887;28;20084;-83
2021/12/15 09:56:23;;;;;;;13.38;4.88;;;13.00;99.90;;;;;;4217163;28;20041;-83
2021/12/15 10:10:37;;;;;;;15.15;4.18;;;11.20;99.90;;;;;;4214435;28;20154;-83
2021/12/15 10:18:56;;;;;;;10.13;5.03;;;10.90;99.90;;;;;;4215560;28;20048;-83
2021/12/15 10:20:57;;;;;;;12.55;4.15;;;10.90;99.90;;;;;;4214055;28;20071;-83
2021/12/15 10:23:03;;;;;;;18.23;4.68;;;10.80;99.90;;;;;;4213986;28;20055;-83
2021/12/15 10:25:29;;;;;;;10.52;4.40;;;10.80;99.90;;;;;;4214366;28;20186;-84
2021/12/15 10:27:47;;;;;;;11.05;4.22;;;10.80;99.90;;;;;;4197342;28;20060;-83
2021/12/15 10:29:58;;;;;;;9.87;3.33;;;10.80;99.90;;;;;;4213377;28;20051;-83
2021/12/15 10:32:07;;;;;;;10.95;3.88;;;10.80;99.90;;;;;;4214859;28;20293;-83
2021/12/15 10:34:10;;;;;;;10.38;3.70;;;10.80;99.90;;;;;;4216172;28;20484;-83
2021/12/15 10:36:15;;;;;;;14.57;4.25;;;10.80;99.90;;;;;;4223059;28;20055;-83
2021/12/15 10:38:28;;;;;;;8.25;4.07;;;10.80;99.90;;;;;;4230813;28;20047;-83
2021/12/15 10:40:29;;;;;;;12.45;4.60;;;10.80;99.90;;;;;;4231418;28;20122;-83
2021/12/15 10:42:30;;;;;;;9.80;3.72;;;10.80;99.90;;;;;;4230764;28;20048;-83
2021/12/15 10:44:31;;;;;;;7.45;3.53;;;10.70;99.90;;;;;;4230603;28;20047;-84
2021/12/15 10:46:41;;;;;;;10.82;3.63;;;10.70;99.90;;;;;;4230580;28;20052;-84
2021/12/15 10:49:04;;;;;;;11.90;4.53;;;10.70;99.90;;;;;;4231961;28;20135;-84
2021/12/15 10:51:27;;;;;;;11.95;4.15;;;10.70;99.90;;;;;;4231825;28;20060;-83
2021/12/15 10:53:38;;;;;;;10.05;4.15;;;10.70;99.90;;;;;;4229947;28;20050;-83
2021/12/15 10:55:40;;;;;;;10.85;4.07;;;10.70;99.90;;;;;;4230578;28;20066;-83
2021/12/15 10:57:44;;;;;;;10.13;4.57;;;10.80;99.90;;;;;;4230745;28;20437;-83
2021/12/15 10:59:51;;;;;;;11.80;3.63;;;10.80;99.90;;;;;;4230854;28;20554;-83
2021/12/15 11:02:05;;;;;;;10.00;4.25;;;10.80;99.90;;;;;;4233298;28;20048;-83
2021/12/15 11:04:20;;;;;;;11.63;4.50;;;10.90;99.90;;;;;;4231489;28;20069;-83
2021/12/15 11:06:27;;;;;;;10.07;4.45;;;10.90;99.90;;;;;;4231068;28;20104;-84
2021/12/15 11:08:27;;;;;;;8.40;3.88;;;10.90;99.90;;;;;;4219439;28;20052;-83
2021/12/15 11:10:37;;;;;;;13.60;4.00;;;11.10;99.90;;;;;;4238891;28;20028;-84
2021/12/15 11:12:55;;;;;;;11.85;3.88;;;11.10;99.90;;;;;;4250516;28;20062;-84
2021/12/15 11:15:22;;;;;;;8.10;3.25;;;11.20;99.90;;;;;;4232295;28;20044;-83
2021/12/15 11:17:27;;;;;;;12.82;3.85;;;11.30;99.90;;;;;;4265602;27;20043;-83
2021/12/15 11:19:48;;;;;;;14.60;3.60;;;11.30;99.90;;;;;;4247796;27;20057;-84
2021/12/15 11:21:49;;;;;;;14.13;4.00;;;11.30;99.90;;;;;;4249429;27;20039;-83
2021/12/15 11:23:54;;;;;;;11.57;3.70;;;11.30;99.90;;;;;;4238001;28;20036;-83
2021/12/15 11:26:02;;;;;;;10.43;3.70;;;11.60;99.90;;;;;;4231101;28;20064;-84
2021/12/15 11:28:05;;;;;;;10.93;3.80;;;11.30;99.90;;;;;;4232789;27;20055;-83
2021/12/15 11:30:13;;;;;;;11.43;4.05;;;11.30;99.90;;;;;;4248949;27;20043;-83
2021/12/15 11:32:42;;;;;;;9.57;4.60;;;11.30;99.90;;;;;;4230152;28;20074;-84
2021/12/15 11:35:04;;;;;;;10.82;3.60;;;11.30;99.90;;;;;;4226005;28;20593;-84
2021/12/15 11:37:05;;;;;;;15.35;3.17;;;11.40;99.90;;;;;;4246475;27;20085;-83
2021/12/15 11:39:15;;;;;;;8.10;3.20;;;11.40;99.90;;;;;;4246866;27;20043;-83
2021/12/15 11:41:25;;;;;;;10.57;3.08;;;11.50;99.90;;;;;;4246741;27;20066;-84
2021/12/15 11:43:53;;;;;;;11.35;4.25;;;11.30;99.90;;;;;;4248243;27;20065;-84